createdAt,value
2018-08-03T00:00:51.671Z,11.90
2018-08-03T00:05:56.590Z,13.57
2018-08-03T00:11:01.383Z,11.63
2018-08-03T00:16:06.257Z,13.07
2018-08-03T00:21:11.149Z,11.40
2018-08-03T00:26:15.939Z,11.87
2018-08-03T00:31:21.498Z,11.57
2018-08-03T00:36:26.155Z,12.20
2018-08-03T00:41:30.791Z,12.37
2018-08-03T00:46:35.586Z,11.10
2018-08-03T00:51:40.204Z,11.23
2018-08-03T00:56:44.839Z,11.67
2018-08-03T01:01:49.647Z,12.00
2018-08-03T01:06:54.313Z,11.70
2018-08-03T01:11:58.912Z,11.00
2018-08-03T01:17:03.632Z,11.53
2018-08-03T01:22:08.248Z,12.07
2018-08-03T01:27:12.855Z,12.00
2018-08-03T01:32:17.661Z,12.33
2018-08-03T01:37:22.435Z,11.13
2018-08-03T01:42:27.291Z,10.87
2018-08-03T01:47:32.021Z,13.00
2018-08-03T01:52:36.684Z,11.63
2018-08-03T01:57:41.374Z,11.00
2018-08-03T02:02:46.064Z,10.97
2018-08-03T02:07:50.766Z,11.40
2018-08-03T02:12:55.480Z,12.27
2018-08-03T02:18:00.171Z,11.93
2018-08-03T02:23:04.891Z,11.60
2018-08-03T02:28:09.680Z,11.30
2018-08-03T02:33:14.408Z,11.50
2018-08-03T02:38:19.046Z,11.37
2018-08-03T02:43:23.725Z,11.33
2018-08-03T02:48:28.422Z,12.90
2018-08-03T02:53:33.153Z,11.17
2018-08-03T02:58:37.866Z,10.70
2018-08-03T03:03:42.523Z,10.83
2018-08-03T03:08:47.183Z,14.37
2018-08-03T03:13:52.304Z,11.37
2018-08-03T03:18:56.956Z,10.73
2018-08-03T03:24:01.722Z,11.33
2018-08-03T03:29:06.383Z,12.60
2018-08-03T03:34:11.004Z,11.63
2018-08-03T03:39:15.728Z,12.93
2018-08-03T03:44:20.546Z,12.73
2018-08-03T03:49:25.439Z,11.93
2018-08-03T03:54:30.147Z,11.53
2018-08-03T03:59:34.836Z,13.07
2018-08-03T04:04:39.613Z,12.33
2018-08-03T04:09:44.259Z,11.53
2018-08-03T04:14:49.038Z,11.83
2018-08-03T04:19:53.725Z,11.33
2018-08-03T04:24:58.355Z,10.83
2018-08-03T04:30:03.234Z,9.73
2018-08-03T04:35:07.986Z,9.93
2018-08-03T04:40:12.950Z,9.53
2018-08-03T04:45:17.665Z,8.90
2018-08-03T04:50:22.408Z,10.10
2018-08-03T04:55:26.718Z,10.00
2018-08-03T05:00:31.408Z,7.80
2018-08-03T05:05:36.055Z,8.27
2018-08-03T05:10:40.780Z,9.83
2018-08-03T05:15:45.615Z,8.57
2018-08-03T05:20:50.351Z,8.67
2018-08-03T05:25:55.096Z,7.90
2018-08-03T05:30:59.415Z,7.60
2018-08-03T05:36:04.180Z,6.70
2018-08-03T05:41:08.943Z,7.83
2018-08-03T05:46:13.685Z,8.80
2018-08-03T05:51:18.449Z,11.57
2018-08-03T05:56:23.198Z,8.13
2018-08-03T06:01:27.907Z,8.77
2018-08-03T06:06:32.597Z,9.50
2018-08-03T06:11:37.360Z,7.57
2018-08-03T06:16:42.003Z,11.50
2018-08-03T06:21:46.699Z,12.00
2018-08-03T06:26:51.327Z,9.67
2018-08-03T06:31:56.205Z,12.70
2018-08-03T06:37:01.025Z,9.73
2018-08-03T06:42:05.840Z,8.67
2018-08-03T06:47:10.590Z,9.10
2018-08-03T06:52:15.412Z,9.27
2018-08-03T06:57:21.986Z,8.00
2018-08-03T07:02:26.566Z,7.33
2018-08-03T07:07:31.259Z,8.60
2018-08-03T07:12:36.026Z,6.83
2018-08-03T07:17:40.703Z,6.80
2018-08-03T07:22:45.501Z,7.10
2018-08-03T07:27:50.294Z,9.00
2018-08-03T07:32:55.028Z,7.07
2018-08-03T07:37:59.663Z,7.57
2018-08-03T07:43:04.347Z,7.07
2018-08-03T07:48:09.299Z,6.27
2018-08-03T07:53:14.089Z,5.53
2018-08-03T07:58:18.790Z,6.67
2018-08-03T08:03:23.481Z,7.07
2018-08-03T08:08:28.328Z,10.20
2018-08-03T08:13:33.008Z,6.50
2018-08-03T08:18:37.780Z,6.97
2018-08-03T08:23:42.517Z,8.00
2018-08-03T08:28:47.364Z,6.17
2018-08-03T08:33:52.150Z,7.40
2018-08-03T08:38:56.886Z,8.30
2018-08-03T08:44:01.603Z,6.40
2018-08-03T08:49:06.665Z,9.80
2018-08-03T08:54:11.348Z,6.70
2018-08-03T08:59:16.001Z,7.43
2018-08-03T09:04:20.750Z,6.20
2018-08-03T09:09:25.477Z,6.40
2018-08-03T09:14:30.282Z,9.60
2018-08-03T09:19:34.964Z,7.07
2018-08-03T09:24:39.743Z,8.03
2018-08-03T09:29:44.449Z,7.50
2018-08-03T09:34:49.159Z,8.53
2018-08-03T09:39:53.872Z,7.20
2018-08-03T09:44:58.695Z,6.67
2018-08-03T09:50:03.533Z,6.33
2018-08-03T09:55:08.327Z,7.37
2018-08-03T10:00:15.791Z,8.67
2018-08-03T10:05:20.522Z,7.60
2018-08-03T10:10:25.248Z,7.57
2018-08-03T10:15:30.011Z,7.87
2018-08-03T10:20:34.926Z,6.97
2018-08-03T10:25:39.799Z,8.70
2018-08-03T10:30:44.437Z,7.37
2018-08-03T10:35:49.093Z,8.20
2018-08-03T10:40:53.860Z,8.63
2018-08-03T10:45:58.604Z,7.10
2018-08-03T10:51:03.374Z,8.47
2018-08-03T10:56:07.745Z,10.53
2018-08-03T11:01:12.402Z,6.80
2018-08-03T11:06:17.067Z,8.73
2018-08-03T11:11:21.735Z,7.00
2018-08-03T11:16:26.560Z,7.93
2018-08-03T11:21:31.363Z,7.72
2018-08-03T11:26:36.451Z,7.62
2018-08-03T11:31:41.169Z,7.42
2018-08-03T11:36:45.746Z,6.25
2018-08-03T11:41:50.467Z,5.00
2018-08-03T11:46:55.292Z,5.97
2018-08-03T11:52:00.057Z,5.72
2018-08-03T11:57:04.833Z,6.05
2018-08-03T12:02:09.620Z,7.05
2018-08-03T12:07:14.397Z,7.62
2018-08-03T12:12:19.076Z,7.25
2018-08-03T12:17:23.772Z,5.92
2018-08-03T12:22:28.540Z,8.58
2018-08-03T12:27:33.162Z,6.22
2018-08-03T12:32:37.906Z,8.68
2018-08-03T12:37:42.637Z,7.70
2018-08-03T12:42:47.424Z,6.42
2018-08-03T12:47:52.173Z,6.40
2018-08-03T12:52:57.009Z,6.20
2018-08-03T12:58:01.751Z,5.83
2018-08-03T13:03:07.175Z,5.30
2018-08-03T13:08:12.052Z,8.13
2018-08-03T13:13:16.698Z,6.05
2018-08-03T13:18:21.312Z,5.78
2018-08-03T13:23:25.965Z,11.78
2018-08-03T13:28:30.716Z,9.03
2018-08-03T13:33:35.404Z,6.03
2018-08-03T13:38:40.168Z,6.50
2018-08-03T13:43:45.246Z,5.28
2018-08-03T13:48:50.581Z,5.50
2018-08-03T13:53:55.273Z,5.70
2018-08-03T13:58:59.901Z,6.92
2018-08-03T14:04:04.598Z,6.50
2018-08-03T14:09:09.303Z,5.92
2018-08-03T14:14:14.695Z,5.67
2018-08-03T14:19:19.361Z,7.35
2018-08-03T14:24:24.088Z,5.30
2018-08-03T14:29:28.824Z,6.60
2018-08-03T14:34:33.671Z,6.45
2018-08-03T14:39:38.452Z,5.65
2018-08-03T14:44:43.240Z,5.30
2018-08-03T14:49:47.890Z,5.62
2018-08-03T14:54:52.498Z,6.22
2018-08-03T14:59:59.133Z,6.95
2018-08-03T15:05:03.908Z,6.78
2018-08-03T15:10:08.675Z,5.85
2018-08-03T15:15:13.587Z,7.15
2018-08-03T15:20:18.317Z,6.00
2018-08-03T15:25:23.010Z,6.42
2018-08-03T15:30:27.695Z,5.60
2018-08-03T15:35:32.351Z,6.40
2018-08-03T15:40:37.091Z,6.55
2018-08-03T15:45:41.887Z,6.75
2018-08-03T15:50:46.606Z,7.35
2018-08-03T15:55:51.357Z,5.55
2018-08-03T16:00:56.151Z,8.98
2018-08-03T16:06:00.519Z,5.50
2018-08-03T16:11:05.266Z,6.17
2018-08-03T16:16:10.255Z,6.17
2018-08-03T16:21:15.077Z,7.95
2018-08-03T16:26:19.952Z,6.17
2018-08-03T16:31:24.628Z,7.28
2018-08-03T16:36:29.401Z,6.10
2018-08-03T16:41:34.107Z,6.05
2018-08-03T16:46:39.077Z,7.55
2018-08-03T16:51:43.743Z,9.85
2018-08-03T16:56:48.462Z,6.67
2018-08-03T17:01:53.418Z,6.90
2018-08-03T17:06:58.020Z,6.95
2018-08-03T17:12:02.810Z,6.45
2018-08-03T17:17:07.955Z,7.10
2018-08-03T17:22:12.824Z,7.07
2018-08-03T17:27:17.623Z,8.10
2018-08-03T17:32:22.367Z,6.40
2018-08-03T17:37:27.046Z,6.80
2018-08-03T17:42:31.817Z,7.90
2018-08-03T17:47:36.756Z,8.87
2018-08-03T17:52:41.823Z,7.60
2018-08-03T17:57:46.980Z,9.00
2018-08-03T18:02:51.454Z,6.67
2018-08-03T18:07:56.159Z,6.63
2018-08-03T18:13:00.848Z,7.53
2018-08-03T18:18:05.662Z,6.87
2018-08-03T18:23:10.399Z,7.90
2018-08-03T18:28:15.059Z,8.33
2018-08-03T18:33:19.680Z,6.80
2018-08-03T18:38:24.396Z,7.13
2018-08-03T18:43:29.118Z,8.27
2018-08-03T18:48:33.735Z,8.00
2018-08-03T18:53:38.402Z,10.60
2018-08-03T18:58:43.295Z,7.60
2018-08-03T19:03:47.945Z,7.10
2018-08-03T19:08:52.734Z,7.57
2018-08-03T19:13:57.381Z,7.70
2018-08-03T19:19:02.060Z,10.33
2018-08-03T19:24:07.221Z,7.90
2018-08-03T19:29:11.928Z,8.43
2018-08-03T19:34:16.632Z,7.37
2018-08-03T19:39:21.531Z,7.03
2018-08-03T19:44:26.306Z,8.50
2018-08-03T19:49:30.996Z,7.83
2018-08-03T19:54:35.728Z,7.97
2018-08-03T19:59:41.160Z,7.70
2018-08-03T20:04:45.817Z,9.53
2018-08-03T20:09:50.639Z,8.13
2018-08-03T20:14:55.457Z,7.77
2018-08-03T20:20:00.217Z,8.20
2018-08-03T20:25:06.091Z,7.90
2018-08-03T20:30:10.828Z,7.47
2018-08-03T20:35:15.624Z,7.63
2018-08-03T20:40:20.397Z,9.47
2018-08-03T20:45:25.232Z,8.83
2018-08-03T20:50:29.988Z,9.53
2018-08-03T20:55:35.030Z,8.83
2018-08-03T21:00:39.647Z,10.70
2018-08-03T21:05:44.331Z,9.47
2018-08-03T21:10:49.004Z,9.37
2018-08-03T21:15:53.887Z,9.50
2018-08-03T21:20:58.598Z,10.03
2018-08-03T21:26:03.358Z,11.43
2018-08-03T21:31:08.151Z,10.33
2018-08-03T21:36:12.930Z,10.07
2018-08-03T21:41:17.640Z,9.93
2018-08-03T21:46:22.446Z,15.43
2018-08-03T21:51:27.201Z,10.20
2018-08-03T21:56:31.990Z,9.43
2018-08-03T22:01:36.730Z,9.70
2018-08-03T22:06:41.488Z,9.97
2018-08-03T22:11:46.168Z,10.20
2018-08-03T22:16:50.920Z,10.57
2018-08-03T22:21:55.653Z,10.93
2018-08-03T22:27:00.317Z,10.07
2018-08-03T22:32:05.083Z,11.57
2018-08-03T22:37:09.806Z,10.23
2018-08-03T22:42:14.583Z,10.83
2018-08-03T22:47:19.283Z,10.63
2018-08-03T22:52:24.225Z,10.67
2018-08-03T22:57:28.885Z,11.00
2018-08-03T23:02:33.681Z,11.23
2018-08-03T23:07:38.423Z,10.67
2018-08-03T23:12:43.128Z,11.20
2018-08-03T23:17:48.602Z,11.33
2018-08-03T23:22:53.361Z,11.13
2018-08-03T23:27:58.320Z,11.50
2018-08-03T23:33:03.273Z,12.63
2018-08-03T23:38:07.967Z,13.77
2018-08-03T23:43:12.809Z,11.43
2018-08-03T23:48:17.722Z,13.63
2018-08-03T23:53:22.396Z,11.47
2018-08-03T23:58:27.178Z,13.53
